createdAt,value
2023-04-14T00:00:37.119Z,21.40
2023-04-14T00:03:04.268Z,22.02
2023-04-14T00:05:31.928Z,21.05
2023-04-14T00:07:58.746Z,20.63
2023-04-14T00:10:26.663Z,20.67
2023-04-14T00:12:55.348Z,22.85
2023-04-14T00:15:22.413Z,23.52
2023-04-14T00:17:49.195Z,21.98
2023-04-14T00:20:16.490Z,22.35
2023-04-14T00:22:43.151Z,20.85
2023-04-14T00:25:09.968Z,22.30
2023-04-14T00:27:36.814Z,21.58
2023-04-14T00:30:03.909Z,21.17
2023-04-14T00:32:30.639Z,21.70
2023-04-14T00:34:57.468Z,21.95
2023-04-14T00:37:24.400Z,19.77
2023-04-14T00:39:51.093Z,20.63
2023-04-14T00:42:17.871Z,20.40
2023-04-14T00:44:44.651Z,21.25
2023-04-14T00:47:11.448Z,20.63
2023-04-14T00:49:38.458Z,21.02
2023-04-14T00:52:06.032Z,20.65
2023-04-14T00:54:34.593Z,20.58
2023-04-14T00:57:02.759Z,21.38
2023-04-14T00:59:29.908Z,22.20
2023-04-14T01:01:57.312Z,22.83
2023-04-14T01:04:33.670Z,22.92
2023-04-14T01:07:03.869Z,22.43
2023-04-14T01:09:31.406Z,23.65
2023-04-14T01:12:49.124Z,24.73
2023-04-14T01:15:38.673Z,26.17
2023-04-14T01:18:29.139Z,24.93
2023-04-14T01:21:03.224Z,23.67
2023-04-14T01:23:39.022Z,23.63
2023-04-14T01:26:20.789Z,24.40
2023-04-14T01:29:02.929Z,24.65
2023-04-14T01:32:05.651Z,26.85
2023-04-14T01:34:50.128Z,23.65
2023-04-14T01:37:18.408Z,24.08
2023-04-14T01:39:52.479Z,23.30
2023-04-14T01:42:26.834Z,24.00
2023-04-14T01:44:58.680Z,23.50
2023-04-14T01:47:26.714Z,24.08
2023-04-14T01:49:55.690Z,24.13
2023-04-14T01:52:23.137Z,22.65
2023-04-14T01:54:53.812Z,23.42
2023-04-14T01:57:23.132Z,22.95
2023-04-14T01:59:54.165Z,24.08
2023-04-14T02:02:24.409Z,24.08
2023-04-14T02:04:52.188Z,24.08
2023-04-14T02:07:21.942Z,23.48
2023-04-14T02:09:49.880Z,23.38
2023-04-14T02:12:20.174Z,25.02
2023-04-14T02:14:47.637Z,23.25
2023-04-14T02:17:16.060Z,23.80
2023-04-14T02:19:43.942Z,23.40
2023-04-14T02:22:10.821Z,23.48
2023-04-14T02:24:37.596Z,24.05
2023-04-14T02:27:22.582Z,24.38
2023-04-14T02:29:54.793Z,25.30
2023-04-14T02:32:29.083Z,26.95
2023-04-14T02:35:06.456Z,25.10
2023-04-14T02:37:40.802Z,24.35
2023-04-14T02:40:18.176Z,26.08
2023-04-14T02:42:48.189Z,28.30
2023-04-14T02:45:22.193Z,27.67
2023-04-14T02:47:54.562Z,28.05
2023-04-14T02:50:22.722Z,26.80
2023-04-14T02:52:51.852Z,27.33
2023-04-14T02:55:23.087Z,26.92
2023-04-14T02:57:51.537Z,26.75
2023-04-14T03:00:18.946Z,28.60
2023-04-14T03:02:47.403Z,28.92
2023-04-14T03:05:14.875Z,27.05
2023-04-14T03:07:44.081Z,27.85
2023-04-14T03:10:14.397Z,26.58
2023-04-14T03:12:42.165Z,27.42
2023-04-14T03:15:10.533Z,26.45
2023-04-14T03:17:38.123Z,27.25
2023-04-14T03:20:05.708Z,26.13
2023-04-14T03:22:36.216Z,25.20
2023-04-14T03:27:31.703Z,22.35
2023-04-14T03:30:07.794Z,22.35
2023-04-14T03:32:41.769Z,20.05
2023-04-14T03:35:10.120Z,21.40
2023-04-14T03:37:39.688Z,20.17
2023-04-14T03:40:11.133Z,21.27
2023-04-14T03:42:40.641Z,21.67
2023-04-14T03:45:08.260Z,20.73
2023-04-14T03:47:35.398Z,21.23
2023-04-14T03:50:04.805Z,21.83
2023-04-14T03:52:36.994Z,20.58
2023-04-14T03:55:06.787Z,18.95
2023-04-14T03:57:36.129Z,18.08
2023-04-14T04:00:05.271Z,18.17
2023-04-14T04:02:33.051Z,19.42
2023-04-14T04:05:01.102Z,19.50
2023-04-14T04:07:30.715Z,18.75
2023-04-14T04:09:57.855Z,19.67
2023-04-14T04:12:26.011Z,19.77
2023-04-14T04:14:52.746Z,19.55
2023-04-14T04:17:24.447Z,19.85
2023-04-14T04:19:53.659Z,20.05
2023-04-14T04:22:21.944Z,18.80
2023-04-14T04:24:50.563Z,21.55
2023-04-14T04:27:27.689Z,20.52
2023-04-14T04:29:55.687Z,21.67
2023-04-14T04:32:23.568Z,21.77
2023-04-14T04:34:51.217Z,22.65
2023-04-14T04:37:19.362Z,26.33
2023-04-14T04:39:47.992Z,23.98
2023-04-14T04:42:14.708Z,22.88
2023-04-14T04:44:41.747Z,21.95
2023-04-14T04:47:09.309Z,22.95
2023-04-14T04:49:35.980Z,21.23
2023-04-14T04:52:02.698Z,21.95
2023-04-14T04:54:29.641Z,21.88
2023-04-14T04:56:57.619Z,20.73
2023-04-14T04:59:24.947Z,21.98
2023-04-14T05:01:51.974Z,20.75
2023-04-14T05:04:18.852Z,20.23
2023-04-14T05:06:45.715Z,20.40
2023-04-14T05:09:12.456Z,18.20
2023-04-14T05:11:39.231Z,17.90
2023-04-14T05:14:06.369Z,18.00
2023-04-14T05:16:33.658Z,16.17
2023-04-14T05:19:00.743Z,15.98
2023-04-14T05:21:27.707Z,15.85
2023-04-14T05:23:54.490Z,13.57
2023-04-14T05:26:44.597Z,14.65
2023-04-14T05:29:09.359Z,14.52
2023-04-14T05:31:36.353Z,13.30
2023-04-14T05:34:03.373Z,12.13
2023-04-14T05:36:31.176Z,13.05
2023-04-14T05:38:58.004Z,12.07
2023-04-14T05:41:24.668Z,11.15
2023-04-14T05:43:51.373Z,11.65
2023-04-14T05:46:18.127Z,11.70
2023-04-14T05:48:45.005Z,11.77
2023-04-14T05:51:12.008Z,11.13
2023-04-14T05:53:38.744Z,10.90
2023-04-14T05:56:05.723Z,11.55
2023-04-14T05:58:32.560Z,10.48
2023-04-14T06:00:59.254Z,11.75
2023-04-14T06:03:26.125Z,10.70
2023-04-14T06:05:53.269Z,10.25
2023-04-14T06:08:20.716Z,10.02
2023-04-14T06:10:47.482Z,8.85
2023-04-14T06:13:15.204Z,9.80
2023-04-14T06:15:41.917Z,10.05
2023-04-14T06:18:08.716Z,9.23
2023-04-14T06:20:36.366Z,9.52
2023-04-14T06:23:03.756Z,9.88
2023-04-14T06:25:30.936Z,8.75
2023-04-14T06:27:57.701Z,8.98
2023-04-14T06:30:25.637Z,8.75
2023-04-14T06:32:54.328Z,8.48
2023-04-14T06:35:32.508Z,8.55
2023-04-14T06:38:00.373Z,8.52
2023-04-14T06:40:27.290Z,7.97
2023-04-14T06:42:53.974Z,8.40
2023-04-14T06:45:20.692Z,8.18
2023-04-14T06:47:47.554Z,8.02
2023-04-14T06:50:14.555Z,7.60
2023-04-14T06:52:41.361Z,6.78
2023-04-14T06:55:08.484Z,6.45
2023-04-14T06:57:35.597Z,6.28
2023-04-14T07:00:04.198Z,5.63
2023-04-14T07:02:31.148Z,5.50
2023-04-14T07:04:58.113Z,5.07
2023-04-14T07:07:24.907Z,5.10
2023-04-14T07:09:51.933Z,4.85
2023-04-14T07:12:19.024Z,5.45
2023-04-14T07:14:52.002Z,4.72
2023-04-14T07:17:22.049Z,4.45
2023-04-14T07:19:48.845Z,3.95
2023-04-14T07:22:15.706Z,4.20
2023-04-14T07:24:42.617Z,4.43
2023-04-14T07:27:15.247Z,4.45
2023-04-14T07:29:42.821Z,4.18
2023-04-14T07:32:09.788Z,4.70
2023-04-14T07:34:37.111Z,4.15
2023-04-14T07:37:04.083Z,4.25
2023-04-14T07:39:30.784Z,4.25
2023-04-14T07:41:58.739Z,3.83
2023-04-14T07:44:26.414Z,3.88
2023-04-14T07:46:53.238Z,3.97
2023-04-14T07:49:19.940Z,4.47
2023-04-14T07:51:46.680Z,4.35
2023-04-14T07:54:13.428Z,4.68
2023-04-14T07:56:40.245Z,4.18
2023-04-14T07:59:06.919Z,3.97
2023-04-14T08:01:33.822Z,4.90
2023-04-14T08:04:12.525Z,3.78
2023-04-14T08:06:40.098Z,4.40
2023-04-14T08:09:06.929Z,3.50
2023-04-14T08:11:34.712Z,4.10
2023-04-14T08:14:01.472Z,3.88
2023-04-14T08:16:29.138Z,4.07
2023-04-14T08:18:57.881Z,4.22
2023-04-14T08:21:24.991Z,3.58
2023-04-14T08:23:52.536Z,4.78
2023-04-14T08:26:19.259Z,3.53
2023-04-14T08:28:47.061Z,3.35
2023-04-14T08:31:13.787Z,3.92
2023-04-14T08:33:40.522Z,4.40
2023-04-14T08:36:07.688Z,3.30
2023-04-14T08:38:34.357Z,3.53
2023-04-14T08:41:03.853Z,3.22
2023-04-14T08:43:30.597Z,3.75
2023-04-14T08:45:59.379Z,3.90
2023-04-14T08:48:30.626Z,3.70
2023-04-14T08:51:07.728Z,4.18
2023-04-14T08:53:37.265Z,3.58
2023-04-14T08:56:05.148Z,3.45
2023-04-14T08:58:32.391Z,4.10
2023-04-14T09:00:59.984Z,4.15
2023-04-14T09:03:27.466Z,3.83
2023-04-14T09:05:54.722Z,4.25
2023-04-14T09:08:21.665Z,4.22
2023-04-14T09:10:48.851Z,4.13
2023-04-14T09:13:17.306Z,4.07
2023-04-14T09:15:44.035Z,4.35
2023-04-14T09:18:12.124Z,4.40
2023-04-14T09:20:40.783Z,4.28
2023-04-14T09:23:12.265Z,3.83
2023-04-14T09:25:40.213Z,3.80
2023-04-14T09:28:07.701Z,4.15
2023-04-14T09:30:34.755Z,3.95
2023-04-14T09:33:06.241Z,3.92
2023-04-14T09:35:51.651Z,4.03
2023-04-14T09:38:39.155Z,4.03
2023-04-14T09:41:07.240Z,3.60
2023-04-14T09:43:34.579Z,3.70
2023-04-14T09:46:06.992Z,4.00
2023-04-14T09:48:34.918Z,3.83
2023-04-14T09:51:11.547Z,3.53
2023-04-14T09:53:42.692Z,4.20
2023-04-14T09:56:11.490Z,3.72
2023-04-14T09:58:40.159Z,3.78
2023-04-14T10:01:19.942Z,3.15
2023-04-14T10:03:50.724Z,3.05
2023-04-14T10:06:24.701Z,3.10
2023-04-14T10:08:53.618Z,3.55
2023-04-14T10:11:29.591Z,3.10
2023-04-14T10:14:02.815Z,3.05
2023-04-14T10:16:30.561Z,3.35
2023-04-14T10:19:00.573Z,3.15
2023-04-14T10:23:57.355Z,3.97
2023-04-14T10:26:24.050Z,3.55
2023-04-14T10:28:53.003Z,3.33
2023-04-14T10:31:24.518Z,3.22
2023-04-14T10:33:51.288Z,3.33
2023-04-14T10:36:29.282Z,3.05
2023-04-14T10:39:02.048Z,3.35
2023-04-14T10:41:56.708Z,3.70
2023-04-14T10:44:29.192Z,3.58
2023-04-14T10:47:02.382Z,3.70
2023-04-14T10:49:38.424Z,3.58
2023-04-14T10:52:15.097Z,3.67
2023-04-14T10:55:01.484Z,4.35
2023-04-14T10:57:38.655Z,3.95
2023-04-14T11:00:24.344Z,4.10
2023-04-14T11:03:08.273Z,3.30
2023-04-14T11:05:36.061Z,4.35
2023-04-14T11:08:17.257Z,3.53
2023-04-14T11:10:51.414Z,3.10
2023-04-14T11:13:18.262Z,3.80
2023-04-14T11:15:57.401Z,3.00
2023-04-14T11:18:30.197Z,3.40
2023-04-14T11:21:04.403Z,2.78
2023-04-14T11:23:31.302Z,3.22
2023-04-14T11:25:58.597Z,3.63
2023-04-14T11:28:33.787Z,3.00
2023-04-14T11:31:02.327Z,3.45
2023-04-14T11:33:30.754Z,3.55
2023-04-14T11:35:58.351Z,3.10
2023-04-14T11:38:27.414Z,3.25
2023-04-14T11:40:54.550Z,3.80
2023-04-14T11:43:22.912Z,3.95
2023-04-14T11:45:50.968Z,4.53
2023-04-14T11:48:19.882Z,4.82
2023-04-14T11:50:48.610Z,4.15
2023-04-14T11:53:17.537Z,4.38
2023-04-14T11:55:54.645Z,4.97
2023-04-14T11:58:24.478Z,4.90
2023-04-14T12:00:53.613Z,4.22
2023-04-14T12:03:30.488Z,4.45
2023-04-14T12:06:01.792Z,4.55
2023-04-14T12:08:32.763Z,4.13
2023-04-14T12:11:13.234Z,4.45
2023-04-14T12:13:41.808Z,4.40
2023-04-14T12:16:08.903Z,5.15
2023-04-14T12:18:36.037Z,6.13
2023-04-14T12:21:06.329Z,5.55
2023-04-14T12:23:41.198Z,7.20
2023-04-14T12:26:12.160Z,6.18
2023-04-14T12:28:41.354Z,6.57
2023-04-14T12:31:09.162Z,6.30
2023-04-14T12:33:36.088Z,6.13
2023-04-14T12:36:12.893Z,6.07
2023-04-14T12:38:39.826Z,5.68
2023-04-14T12:41:06.616Z,6.35
2023-04-14T12:43:36.519Z,6.30
2023-04-14T12:46:05.571Z,6.22
2023-04-14T12:48:46.889Z,5.53
2023-04-14T12:51:16.050Z,6.28
2023-04-14T12:53:44.438Z,5.72
2023-04-14T12:56:22.672Z,6.20
2023-04-14T12:58:51.080Z,6.57
2023-04-14T13:01:19.908Z,6.38
2023-04-14T13:03:50.680Z,6.53
2023-04-14T13:06:19.551Z,5.93
2023-04-14T13:08:50.496Z,6.00
2023-04-14T13:11:18.634Z,6.15
2023-04-14T13:13:45.802Z,5.78
2023-04-14T13:16:16.937Z,5.28
2023-04-14T13:18:45.666Z,6.05
2023-04-14T13:21:12.538Z,5.90
2023-04-14T13:23:40.045Z,5.80
2023-04-14T13:26:07.190Z,6.22
2023-04-14T13:28:33.950Z,6.28
2023-04-14T13:31:01.034Z,6.43
2023-04-14T13:33:27.949Z,5.75
2023-04-14T13:35:56.399Z,6.28
2023-04-14T13:38:23.116Z,7.10
2023-04-14T13:40:49.911Z,7.15
2023-04-14T13:43:25.061Z,6.05
2023-04-14T13:45:57.970Z,6.20
2023-04-14T13:48:34.591Z,6.63
2023-04-14T13:51:02.354Z,5.95
2023-04-14T13:53:31.222Z,6.03
2023-04-14T13:56:01.939Z,6.28
2023-04-14T13:58:34.236Z,6.70
2023-04-14T14:01:18.755Z,6.32
2023-04-14T14:03:45.921Z,5.88
2023-04-14T14:06:12.872Z,6.38
2023-04-14T14:08:41.960Z,5.55
2023-04-14T14:11:11.827Z,5.72
2023-04-14T14:13:39.051Z,6.43
2023-04-14T14:16:07.279Z,6.82
2023-04-14T14:18:38.588Z,6.03
2023-04-14T14:21:05.741Z,5.93
2023-04-14T14:23:32.457Z,5.85
2023-04-14T14:25:59.385Z,6.38
2023-04-14T14:28:26.045Z,6.10
2023-04-14T14:30:52.766Z,6.40
2023-04-14T14:33:19.841Z,6.20
2023-04-14T14:35:46.608Z,7.20
2023-04-14T14:38:13.542Z,6.25
2023-04-14T14:40:40.416Z,6.32
2023-04-14T14:43:07.289Z,7.93
2023-04-14T14:45:34.079Z,6.70
2023-04-14T14:48:01.435Z,6.05
2023-04-14T14:50:28.168Z,7.22
2023-04-14T14:52:56.817Z,6.43
2023-04-14T14:55:23.680Z,6.32
2023-04-14T14:57:51.236Z,6.55
2023-04-14T15:00:18.489Z,7.05
2023-04-14T15:02:45.419Z,6.72
2023-04-14T15:05:12.661Z,6.43
2023-04-14T15:07:39.727Z,5.85
2023-04-14T15:10:07.231Z,6.60
2023-04-14T15:12:33.992Z,6.47
2023-04-14T15:15:00.766Z,7.47
2023-04-14T15:17:27.484Z,6.53
2023-04-14T15:19:54.255Z,6.75
2023-04-14T15:22:21.238Z,6.28
2023-04-14T15:24:47.939Z,6.38
2023-04-14T15:27:14.632Z,6.53
2023-04-14T15:29:41.321Z,6.80
2023-04-14T15:32:08.185Z,6.18
2023-04-14T15:34:34.962Z,7.00
2023-04-14T15:37:01.691Z,6.32
2023-04-14T15:39:28.770Z,6.70
2023-04-14T15:41:55.908Z,6.22
2023-04-14T15:44:22.780Z,6.32
2023-04-14T15:46:50.513Z,6.22
2023-04-14T15:49:17.397Z,6.68
2023-04-14T15:51:44.147Z,6.03
2023-04-14T15:54:13.429Z,6.70
2023-04-14T15:56:40.125Z,6.10
2023-04-14T15:59:07.250Z,6.13
2023-04-14T16:01:33.997Z,6.35
2023-04-14T16:04:01.094Z,5.43
2023-04-14T16:06:28.567Z,6.47
2023-04-14T16:08:55.356Z,6.13
2023-04-14T16:11:23.917Z,5.45
2023-04-14T16:13:50.820Z,5.78
2023-04-14T16:16:17.840Z,6.07
2023-04-14T16:18:44.654Z,6.30
2023-04-14T16:21:11.730Z,5.15
2023-04-14T16:23:38.490Z,5.05
2023-04-14T16:26:05.578Z,5.22
2023-04-14T16:28:32.455Z,5.60
2023-04-14T16:31:02.949Z,5.32
2023-04-14T16:33:31.575Z,4.70
2023-04-14T16:36:06.533Z,4.93
2023-04-14T16:38:33.677Z,4.90
2023-04-14T16:41:02.159Z,5.20
2023-04-14T16:43:29.016Z,5.20
2023-04-14T16:46:03.296Z,4.70
2023-04-14T16:48:31.304Z,5.07
2023-04-14T16:51:04.444Z,5.43
2023-04-14T16:53:31.421Z,5.30
2023-04-14T16:56:05.635Z,5.38
2023-04-14T16:58:35.209Z,4.95
2023-04-14T17:01:02.299Z,5.43
2023-04-14T17:03:29.245Z,5.30
2023-04-14T17:05:56.442Z,5.80
2023-04-14T17:08:23.510Z,4.88
2023-04-14T17:10:50.643Z,5.72
2023-04-14T17:13:21.328Z,5.93
2023-04-14T17:18:21.881Z,6.38
2023-04-14T17:20:50.835Z,5.45
2023-04-14T17:23:20.477Z,5.45
2023-04-14T17:25:48.524Z,5.95
2023-04-14T17:28:15.688Z,6.10
2023-04-14T17:30:42.382Z,6.80
2023-04-14T17:33:09.332Z,5.80
2023-04-14T17:35:36.673Z,6.45
2023-04-14T17:38:06.575Z,6.30
2023-04-14T17:40:33.462Z,6.70
2023-04-14T17:43:00.305Z,7.40
2023-04-14T17:45:27.688Z,6.88
2023-04-14T17:47:54.780Z,7.45
2023-04-14T17:50:22.364Z,6.63
2023-04-14T17:52:51.090Z,6.90
2023-04-14T17:55:18.025Z,6.50
2023-04-14T17:57:47.976Z,7.07
2023-04-14T18:00:15.006Z,7.28
2023-04-14T18:02:42.213Z,7.13
2023-04-14T18:05:10.908Z,6.97
2023-04-14T18:07:38.039Z,7.63
2023-04-14T18:10:06.300Z,8.10
2023-04-14T18:12:33.423Z,7.38
2023-04-14T18:15:00.211Z,6.45
2023-04-14T18:17:27.399Z,6.38
2023-04-14T18:19:56.584Z,6.88
2023-04-14T18:22:24.331Z,7.18
2023-04-14T18:24:51.329Z,7.60
2023-04-14T18:29:48.128Z,7.47
2023-04-14T18:32:15.414Z,8.63
2023-04-14T18:34:42.213Z,6.70
2023-04-14T18:37:09.554Z,7.57
2023-04-14T18:39:37.408Z,7.68
2023-04-14T18:42:05.252Z,6.55
2023-04-14T18:44:32.577Z,7.18
2023-04-14T18:46:59.608Z,8.02
2023-04-14T18:49:26.389Z,8.52
2023-04-14T18:51:53.589Z,7.35
2023-04-14T18:54:21.900Z,7.68
2023-04-14T18:56:49.063Z,8.23
2023-04-14T18:59:15.899Z,8.23
2023-04-14T19:01:42.655Z,8.00
2023-04-14T19:04:09.448Z,8.35
2023-04-14T19:06:37.204Z,8.20
2023-04-14T19:09:04.626Z,9.02
2023-04-14T19:11:36.087Z,8.07
2023-04-14T19:14:06.030Z,7.93
2023-04-14T19:16:33.571Z,8.70
2023-04-14T19:19:00.870Z,9.07
2023-04-14T19:21:27.935Z,8.30
2023-04-14T19:23:56.952Z,8.48
2023-04-14T19:26:27.569Z,8.52
2023-04-14T19:28:57.510Z,8.63
2023-04-14T19:31:28.111Z,9.43
2023-04-14T19:33:55.083Z,9.45
2023-04-14T19:36:21.937Z,7.97
2023-04-14T19:38:49.014Z,8.63
2023-04-14T19:41:15.806Z,8.57
2023-04-14T19:43:42.545Z,8.70
2023-04-14T19:46:12.639Z,8.95
2023-04-14T19:48:39.711Z,8.77
2023-04-14T19:51:06.405Z,9.80
2023-04-14T19:53:33.235Z,9.30
2023-04-14T19:56:00.244Z,7.47
2023-04-14T19:58:28.458Z,7.90
2023-04-14T20:00:58.747Z,7.88
2023-04-14T20:05:57.125Z,8.73
2023-04-14T20:08:25.279Z,8.77
2023-04-14T20:10:53.247Z,8.77
2023-04-14T20:13:22.617Z,9.27
2023-04-14T20:15:50.793Z,8.82
2023-04-14T20:18:18.313Z,8.05
2023-04-14T20:20:48.832Z,8.48
2023-04-14T20:23:15.869Z,8.50
2023-04-14T20:25:43.987Z,8.15
2023-04-14T20:28:10.872Z,9.00
2023-04-14T20:30:37.800Z,7.80
2023-04-14T20:33:05.624Z,8.07
2023-04-14T20:35:37.290Z,8.52
2023-04-14T20:38:04.960Z,7.93
2023-04-14T20:40:32.601Z,7.55
2023-04-14T20:42:59.965Z,8.32
2023-04-14T20:45:26.713Z,8.85
2023-04-14T20:47:53.505Z,8.45
2023-04-14T20:50:20.276Z,8.55
2023-04-14T20:52:47.102Z,8.80
2023-04-14T20:55:14.013Z,7.50
2023-04-14T20:57:44.981Z,8.15
2023-04-14T21:00:15.481Z,8.25
2023-04-14T21:02:43.473Z,7.80
2023-04-14T21:05:10.962Z,8.95
2023-04-14T21:07:42.099Z,9.13
2023-04-14T21:10:10.456Z,8.43
2023-04-14T21:13:47.771Z,8.77
2023-04-14T21:15:50.192Z,8.25
2023-04-14T21:18:12.021Z,8.38
2023-04-14T21:20:38.764Z,8.73
2023-04-14T21:23:05.771Z,9.13
2023-04-14T21:25:34.414Z,9.68
2023-04-14T21:28:02.286Z,10.02
2023-04-14T21:30:28.958Z,9.15
2023-04-14T21:32:55.714Z,9.10
2023-04-14T21:35:22.452Z,9.25
2023-04-14T21:37:49.129Z,9.45
2023-04-14T21:40:15.812Z,9.15
2023-04-14T21:42:42.512Z,8.82
2023-04-14T21:45:09.561Z,9.23
2023-04-14T21:47:36.577Z,9.68
2023-04-14T21:50:03.500Z,8.88
2023-04-14T21:52:30.493Z,9.68
2023-04-14T21:54:57.377Z,8.82
2023-04-14T21:57:43.882Z,9.43
2023-04-14T22:00:16.114Z,10.07
2023-04-14T22:02:44.265Z,9.40
2023-04-14T22:05:11.166Z,9.55
2023-04-14T22:07:39.617Z,9.25
2023-04-14T22:10:07.059Z,10.05
2023-04-14T22:12:39.629Z,9.30
2023-04-14T22:15:08.758Z,9.80
2023-04-14T22:17:37.453Z,9.05
2023-04-14T22:20:08.124Z,9.15
2023-04-14T22:22:34.936Z,9.45
2023-04-14T22:25:03.640Z,8.90
2023-04-14T22:27:31.527Z,8.77
2023-04-14T22:29:58.194Z,10.02
2023-04-14T22:32:24.938Z,9.27
2023-04-14T22:34:52.029Z,10.10
2023-04-14T22:37:18.683Z,9.43
2023-04-14T22:39:45.799Z,9.23
2023-04-14T22:42:13.101Z,8.88
2023-04-14T22:44:39.757Z,9.40
2023-04-14T22:47:06.714Z,9.52
2023-04-14T22:49:33.364Z,9.10
2023-04-14T22:52:00.123Z,9.48
2023-04-14T22:54:27.493Z,9.18
2023-04-14T22:56:54.188Z,8.98
2023-04-14T22:59:20.949Z,9.05
2023-04-14T23:01:48.456Z,9.65
2023-04-14T23:04:15.433Z,8.75
2023-04-14T23:06:42.590Z,8.60
2023-04-14T23:09:10.553Z,9.57
2023-04-14T23:11:37.643Z,9.25
2023-04-14T23:14:04.948Z,9.00
2023-04-14T23:16:32.436Z,9.40
2023-04-14T23:18:59.399Z,8.63
2023-04-14T23:21:28.724Z,8.95
2023-04-14T23:23:55.963Z,9.00
2023-04-14T23:26:23.871Z,8.63
2023-04-14T23:28:53.034Z,9.40
2023-04-14T23:31:22.308Z,10.02
2023-04-14T23:33:58.382Z,9.77
2023-04-14T23:36:25.477Z,9.35
2023-04-14T23:38:52.976Z,8.98
2023-04-14T23:41:19.686Z,8.70
2023-04-14T23:43:49.362Z,9.10
2023-04-14T23:46:16.258Z,9.52
2023-04-14T23:48:43.089Z,9.38
2023-04-14T23:51:16.167Z,9.32
2023-04-14T23:53:44.922Z,9.45
2023-04-14T23:56:13.019Z,8.82
2023-04-14T23:58:39.722Z,10.07
